Time;durP1;ratioP1;P1;durP2;ratioP2;P2;SDS_P1;SDS_P2;PMS_P1;PMS_P2;Temp;Humidity;BMP_temperature;BMP_pressure;BME280_temperature;BME280_humidity;BME280_pressure;Samples;Min_cycle;Max_cycle;Signal;HPM_P1;HPM_P2
2021/12/10 00:00:22;;;;;;;37.03;22.05;;;5.50;99.90;;;;;;5050473;28;20033;-82
2021/12/10 00:02:48;;;;;;;38.60;22.60;;;5.50;99.90;;;;;;5034774;28;20037;-82
2021/12/10 00:05:18;;;;;;;34.15;22.42;;;5.50;99.90;;;;;;5051846;28;20044;-82
2021/12/10 00:07:45;;;;;;;36.65;21.02;;;5.50;99.90;;;;;;5051556;28;20108;-82
2021/12/10 00:10:16;;;;;;;33.47;20.17;;;5.50;99.90;;;;;;5051354;28;20048;-82
2021/12/10 00:12:49;;;;;;;37.58;21.88;;;5.50;99.90;;;;;;5051543;28;20124;-83
2021/12/10 00:15:17;;;;;;;35.92;21.45;;;5.50;99.90;;;;;;5067443;28;20406;-82
2021/12/10 00:17:44;;;;;;;36.50;21.73;;;5.50;99.90;;;;;;5035363;28;20048;-82
2021/12/10 00:20:11;;;;;;;35.33;21.35;;;5.60;99.90;;;;;;5050966;28;20410;-84
2021/12/10 00:22:52;;;;;;;35.85;21.88;;;5.50;99.90;;;;;;5051131;28;20044;-83
2021/12/10 00:25:24;;;;;;;29.50;19.13;;;5.60;99.90;;;;;;5058440;28;20052;-84
2021/12/10 00:27:53;;;;;;;31.38;19.65;;;5.60;99.90;;;;;;5051483;28;20120;-84
2021/12/10 00:30:28;;;;;;;34.20;19.23;;;5.50;99.90;;;;;;5034715;28;20047;-84
2021/12/10 00:33:12;;;;;;;31.42;18.80;;;5.50;99.90;;;;;;5051183;28;20143;-84
2021/12/10 00:35:39;;;;;;;33.22;17.75;;;5.50;99.90;;;;;;5050153;28;20383;-84
2021/12/10 00:38:06;;;;;;;24.63;16.30;;;5.50;99.90;;;;;;5051015;28;20128;-84
2021/12/10 00:40:32;;;;;;;32.35;16.80;;;5.50;99.90;;;;;;5051192;28;20208;-84
2021/12/10 00:43:02;;;;;;;28.67;17.05;;;5.50;99.90;;;;;;5050272;28;20441;-84
2021/12/10 00:45:28;;;;;;;30.58;18.40;;;5.50;99.90;;;;;;5050304;28;20055;-84
2021/12/10 00:47:54;;;;;;;25.52;16.38;;;5.50;99.90;;;;;;5049959;28;20429;-84
2021/12/10 00:50:24;;;;;;;30.10;17.15;;;5.50;99.90;;;;;;5050312;28;20403;-84
2021/12/10 00:52:53;;;;;;;29.95;17.20;;;5.50;99.90;;;;;;5050540;28;20048;-84
2021/12/10 00:55:19;;;;;;;31.52;16.52;;;5.50;99.90;;;;;;5050137;28;20040;-84
2021/12/10 00:57:45;;;;;;;30.63;16.77;;;5.50;99.90;;;;;;5050090;28;20120;-84
2021/12/10 01:00:19;;;;;;;28.27;17.35;;;5.50;99.90;;;;;;5033766;28;20132;-84
2021/12/10 01:02:46;;;;;;;27.73;16.00;;;5.50;99.90;;;;;;5050270;28;20044;-84
2021/12/10 01:05:14;;;;;;;29.25;17.27;;;5.50;99.90;;;;;;5048371;28;20047;-84
2021/12/10 01:07:41;;;;;;;29.20;17.73;;;5.50;99.90;;;;;;5033127;28;20080;-84
2021/12/10 01:10:24;;;;;;;29.75;16.48;;;5.50;99.90;;;;;;5033080;28;20045;-84
2021/12/10 01:12:55;;;;;;;26.70;14.63;;;5.50;99.90;;;;;;5049943;28;20047;-84
2021/12/10 01:23:57;;;;;;;26.92;14.18;;;5.50;99.90;;;;;;5049633;28;20053;-84
2021/12/10 01:29:13;;;;;;;22.60;13.48;;;5.50;99.90;;;;;;5048326;28;20052;-84
2021/12/10 01:31:40;;;;;;;23.85;13.50;;;5.40;99.90;;;;;;5049783;28;20056;-84
2021/12/10 01:34:07;;;;;;;26.30;14.27;;;5.50;99.90;;;;;;5049229;28;20521;-84
2021/12/10 01:36:33;;;;;;;25.75;14.45;;;5.40;99.90;;;;;;5049834;28;20551;-84
2021/12/10 01:38:59;;;;;;;27.30;14.02;;;5.40;99.90;;;;;;5049704;28;20083;-85
2021/12/10 01:41:29;;;;;;;20.80;11.77;;;5.40;99.90;;;;;;5049864;28;20076;-84
2021/12/10 01:44:01;;;;;;;24.35;13.38;;;5.40;99.90;;;;;;5049321;28;20040;-84
2021/12/10 01:46:29;;;;;;;18.98;11.70;;;5.40;99.90;;;;;;5049465;28;20068;-84
2021/12/10 01:48:58;;;;;;;22.13;11.75;;;5.40;99.90;;;;;;5049281;28;20072;-84
2021/12/10 01:51:29;;;;;;;29.45;13.43;;;5.40;99.90;;;;;;5049778;28;20115;-84
2021/12/10 01:54:05;;;;;;;25.80;13.05;;;5.40;99.90;;;;;;5049477;28;20033;-84
2021/12/10 01:56:33;;;;;;;22.90;13.40;;;5.40;99.90;;;;;;5049300;28;20410;-84
2021/12/10 01:59:00;;;;;;;26.52;13.77;;;5.30;99.90;;;;;;5032900;28;20040;-84
2021/12/10 02:01:31;;;;;;;23.77;12.20;;;5.40;99.90;;;;;;5048352;28;20128;-84
2021/12/10 02:03:59;;;;;;;25.98;13.70;;;5.30;99.90;;;;;;5048206;28;20152;-84
2021/12/10 02:06:25;;;;;;;22.77;11.85;;;5.30;99.90;;;;;;5049592;28;20033;-84
2021/12/10 02:08:52;;;;;;;24.52;12.40;;;5.30;99.90;;;;;;5050039;28;20387;-84
2021/12/10 02:11:18;;;;;;;28.35;12.45;;;5.40;99.90;;;;;;5048907;28;20067;-84
2021/12/10 02:13:46;;;;;;;24.38;12.50;;;5.30;99.90;;;;;;5048779;28;20076;-84
2021/12/10 02:16:12;;;;;;;21.83;12.32;;;5.30;99.90;;;;;;5032570;28;20037;-84
2021/12/10 02:18:38;;;;;;;23.65;11.75;;;5.40;99.90;;;;;;5048971;28;20124;-84
2021/12/10 02:21:03;;;;;;;25.08;13.35;;;5.40;99.90;;;;;;5049610;28;20040;-84
2021/12/10 02:23:32;;;;;;;21.85;12.43;;;5.40;99.90;;;;;;5051738;28;20056;-84
2021/12/10 02:26:01;;;;;;;21.58;12.32;;;5.40;99.90;;;;;;5052722;28;20470;-84
2021/12/10 02:28:27;;;;;;;21.83;12.88;;;5.40;99.90;;;;;;5053074;28;20053;-84
2021/12/10 02:30:54;;;;;;;22.20;12.43;;;5.40;99.90;;;;;;5052888;28;20041;-84
2021/12/10 02:33:20;;;;;;;24.00;13.30;;;5.40;99.90;;;;;;5052212;28;20045;-84
2021/12/10 02:35:46;;;;;;;23.13;12.82;;;5.30;99.90;;;;;;5052932;28;20053;-84
2021/12/10 02:38:16;;;;;;;24.58;12.20;;;5.40;99.90;;;;;;5056530;28;20036;-84
2021/12/10 02:40:42;;;;;;;23.45;12.02;;;5.40;99.90;;;;;;5056988;28;20094;-84
2021/12/10 02:43:11;;;;;;;20.33;12.10;;;5.40;99.90;;;;;;5056723;28;20040;-84
2021/12/10 02:45:37;;;;;;;24.63;12.88;;;5.40;99.90;;;;;;5056234;28;20056;-84
2021/12/10 02:48:04;;;;;;;27.60;13.05;;;5.40;99.90;;;;;;5039299;28;20040;-84
2021/12/10 02:50:31;;;;;;;27.20;13.10;;;5.40;99.90;;;;;;5055674;28;20044;-84
2021/12/10 02:52:58;;;;;;;24.13;12.32;;;5.40;99.90;;;;;;5056189;28;20083;-84
2021/12/10 02:55:25;;;;;;;21.98;12.20;;;5.40;99.90;;;;;;5055032;28;20037;-84
2021/12/10 02:57:55;;;;;;;23.58;13.40;;;5.40;99.90;;;;;;5056128;28;20123;-84
2021/12/10 03:00:28;;;;;;;24.08;14.23;;;5.40;99.90;;;;;;5056482;28;20696;-84
2021/12/10 03:02:54;;;;;;;28.77;14.48;;;5.40;99.90;;;;;;5055613;28;20094;-84
2021/12/10 03:05:20;;;;;;;25.63;14.43;;;5.40;99.90;;;;;;5038923;28;20412;-84
2021/12/10 03:07:45;;;;;;;26.48;15.05;;;5.40;99.90;;;;;;5056096;28;20043;-84
2021/12/10 03:10:20;;;;;;;28.80;14.98;;;5.40;99.90;;;;;;5073166;28;20045;-84
2021/12/10 03:12:46;;;;;;;28.48;16.27;;;5.40;99.90;;;;;;5039496;28;20037;-84
2021/12/10 03:15:14;;;;;;;25.95;15.00;;;5.40;99.90;;;;;;5054938;28;20394;-84
2021/12/10 03:17:40;;;;;;;26.08;16.02;;;5.40;99.90;;;;;;5073345;28;20063;-84
2021/12/10 03:20:09;;;;;;;28.02;15.77;;;5.40;99.90;;;;;;5039393;28;20032;-84
2021/12/10 03:22:37;;;;;;;24.75;15.68;;;5.40;99.90;;;;;;5055575;28;20425;-84
2021/12/10 03:25:09;;;;;;;27.45;15.65;;;5.40;99.90;;;;;;5054663;28;20743;-84
2021/12/10 03:27:35;;;;;;;25.13;14.75;;;5.30;99.90;;;;;;5055658;28;20040;-84
2021/12/10 03:30:01;;;;;;;26.88;15.70;;;5.30;99.90;;;;;;5055280;28;20048;-84
2021/12/10 03:32:30;;;;;;;25.40;14.75;;;5.30;99.90;;;;;;5066795;28;20047;-84
2021/12/10 03:35:04;;;;;;;24.63;14.40;;;5.30;99.90;;;;;;5058084;28;20585;-84
2021/12/10 03:37:30;;;;;;;23.45;15.27;;;5.30;99.90;;;;;;5075559;28;20040;-84
2021/12/10 03:39:55;;;;;;;24.75;13.70;;;5.30;99.90;;;;;;5075419;28;20377;-84
2021/12/10 03:42:21;;;;;;;23.90;14.07;;;5.30;99.90;;;;;;5058560;28;20044;-84
2021/12/10 03:44:47;;;;;;;22.08;13.57;;;5.30;99.90;;;;;;5074945;28;20048;-84
2021/12/10 03:47:13;;;;;;;26.98;15.40;;;5.30;99.90;;;;;;5074729;28;20071;-84
2021/12/10 03:49:40;;;;;;;28.55;14.52;;;5.30;99.90;;;;;;5075094;28;20044;-84
2021/12/10 03:52:09;;;;;;;23.83;14.38;;;5.20;99.90;;;;;;5058223;28;20072;-84
2021/12/10 03:54:37;;;;;;;20.88;14.52;;;5.20;99.90;;;;;;5074049;28;20044;-83
2021/12/10 03:57:03;;;;;;;23.13;14.10;;;5.20;99.90;;;;;;5058586;28;20044;-84
2021/12/10 03:59:30;;;;;;;24.60;14.20;;;5.20;99.90;;;;;;5075245;28;20536;-84
2021/12/10 04:01:57;;;;;;;21.73;13.65;;;5.20;99.90;;;;;;5074775;28;20411;-84
2021/12/10 04:04:29;;;;;;;23.23;14.20;;;5.20;99.90;;;;;;5066425;28;20050;-84
2021/12/10 04:07:02;;;;;;;22.40;11.97;;;5.10;99.90;;;;;;5054913;28;20084;-84
2021/12/10 04:09:27;;;;;;;;;;;5.10;99.90;;;;;;5038516;28;20040;-84
2021/12/10 04:11:55;;;;;;;20.80;12.65;;;5.10;99.90;;;;;;5054438;28;19970;-84
2021/12/10 04:14:22;;;;;;;20.73;13.07;;;5.00;99.90;;;;;;5053973;28;20052;-84
2021/12/10 04:16:54;;;;;;;23.10;13.10;;;5.00;99.90;;;;;;5053962;28;20440;-84
2021/12/10 04:19:20;;;;;;;21.15;12.88;;;4.90;99.90;;;;;;5054312;28;20044;-84
2021/12/10 04:21:46;;;;;;;22.08;13.88;;;4.90;99.90;;;;;;5054959;28;20413;-84
2021/12/10 04:24:15;;;;;;;23.00;13.45;;;4.90;99.90;;;;;;5053998;28;20036;-84
2021/12/10 04:26:41;;;;;;;21.13;13.02;;;4.90;99.90;;;;;;5054196;28;20490;-84
2021/12/10 04:29:07;;;;;;;22.30;13.20;;;4.80;99.90;;;;;;5054619;28;20583;-84
2021/12/10 04:31:33;;;;;;;21.38;13.75;;;4.80;99.90;;;;;;5050361;28;20656;-84
2021/12/10 04:33:59;;;;;;;22.42;13.70;;;4.80;99.90;;;;;;5033898;28;20044;-84
2021/12/10 04:36:25;;;;;;;21.75;13.20;;;4.70;99.90;;;;;;5034437;28;20075;-84
2021/12/10 04:38:51;;;;;;;22.42;13.82;;;4.70;99.90;;;;;;5050379;28;20041;-84
2021/12/10 04:41:18;;;;;;;21.45;14.07;;;4.60;99.90;;;;;;5051259;28;20129;-84
2021/12/10 04:43:44;;;;;;;24.10;15.00;;;4.60;99.90;;;;;;5050571;28;20045;-84
2021/12/10 04:46:10;;;;;;;24.38;13.98;;;4.60;99.90;;;;;;5049373;28;20053;-84
2021/12/10 04:49:03;;;;;;;22.80;13.98;;;4.50;99.90;;;;;;5034062;28;20494;-84
2021/12/10 04:51:35;;;;;;;21.98;13.02;;;4.50;99.90;;;;;;5050083;28;20120;-84
2021/12/10 04:54:02;;;;;;;20.45;13.07;;;4.50;99.90;;;;;;5049974;28;20066;-84
2021/12/10 04:56:29;;;;;;;23.35;13.35;;;4.40;99.90;;;;;;5050208;28;20045;-84
2021/12/10 04:58:55;;;;;;;20.67;13.45;;;4.40;99.90;;;;;;5050833;28;20048;-84
2021/12/10 05:01:21;;;;;;;19.50;13.50;;;4.30;99.90;;;;;;5050272;28;20063;-84
2021/12/10 05:03:47;;;;;;;18.85;12.35;;;4.30;99.90;;;;;;5049503;28;20152;-84
2021/12/10 05:06:13;;;;;;;20.75;12.05;;;4.30;99.90;;;;;;5011058;28;20047;-84
2021/12/10 05:08:41;;;;;;;17.73;11.48;;;4.30;99.90;;;;;;5029888;28;20037;-84
2021/12/10 05:11:08;;;;;;;17.88;11.65;;;4.20;99.90;;;;;;5029735;28;20095;-84
2021/12/10 05:13:36;;;;;;;19.02;12.50;;;4.20;99.90;;;;;;5031046;28;20518;-84
2021/12/10 05:16:02;;;;;;;18.55;11.52;;;4.20;99.90;;;;;;5031042;28;20540;-84
2021/12/10 05:18:35;;;;;;;17.58;10.73;;;4.10;99.90;;;;;;5014242;28;20076;-84
2021/12/10 05:21:02;;;;;;;16.35;9.60;;;4.10;99.90;;;;;;5030147;28;20553;-84
2021/12/10 05:23:28;;;;;;;17.77;11.63;;;4.10;99.90;;;;;;5028707;28;20047;-84
2021/12/10 05:25:54;;;;;;;16.55;10.95;;;4.10;99.90;;;;;;5012978;28;20041;-84
2021/12/10 05:28:21;;;;;;;17.90;11.00;;;4.10;99.90;;;;;;5029911;28;20095;-84
2021/12/10 05:30:48;;;;;;;16.40;10.93;;;4.00;99.90;;;;;;5012572;28;20042;-84
2021/12/10 05:33:17;;;;;;;17.20;10.02;;;4.00;99.90;;;;;;5029626;28;20067;-84
2021/12/10 05:35:45;;;;;;;16.77;10.38;;;4.00;99.90;;;;;;5012456;28;20037;-84
2021/12/10 05:38:11;;;;;;;17.08;10.43;;;4.00;99.90;;;;;;5029430;28;20127;-84
2021/12/10 05:40:37;;;;;;;14.98;9.57;;;3.90;99.90;;;;;;5028951;28;20132;-84
2021/12/10 05:43:02;;;;;;;21.50;10.82;;;3.90;99.90;;;;;;5012949;28;20043;-84
2021/12/10 05:45:28;;;;;;;18.60;10.23;;;3.90;99.90;;;;;;5030319;28;20041;-83
2021/12/10 05:47:54;;;;;;;18.52;10.13;;;3.90;99.90;;;;;;5029685;28;20073;-83
2021/12/10 05:50:23;;;;;;;15.57;9.55;;;3.80;99.90;;;;;;5029711;28;20124;-83
2021/12/10 05:52:48;;;;;;;14.15;8.98;;;3.80;99.90;;;;;;5029092;28;20037;-84
2021/12/10 05:55:15;;;;;;;16.15;9.32;;;3.80;99.90;;;;;;5012467;28;20041;-84
2021/12/10 05:57:40;;;;;;;15.70;9.57;;;3.80;99.90;;;;;;5012526;28;20045;-84
2021/12/10 06:00:11;;;;;;;15.82;10.20;;;3.70;99.90;;;;;;5012720;28;20241;-84
2021/12/10 06:02:37;;;;;;;16.27;9.82;;;3.70;99.90;;;;;;5029054;28;20045;-84
2021/12/10 06:05:03;;;;;;;14.57;9.15;;;3.70;99.90;;;;;;5041037;28;20048;-84
2021/12/10 06:07:29;;;;;;;15.75;10.18;;;3.70;99.90;;;;;;5031690;28;20207;-84
2021/12/10 06:09:54;;;;;;;18.10;10.35;;;3.60;99.90;;;;;;5050170;28;20112;-84
2021/12/10 06:12:20;;;;;;;17.50;9.95;;;3.60;99.90;;;;;;5032171;28;20040;-84
2021/12/10 06:14:46;;;;;;;17.92;10.32;;;3.60;99.90;;;;;;5048031;28;20080;-84
2021/12/10 06:17:11;;;;;;;14.18;9.65;;;3.50;99.90;;;;;;5031844;28;20065;-84
2021/12/10 06:19:37;;;;;;;17.00;9.90;;;3.50;99.90;;;;;;5049350;28;20037;-83
2021/12/10 06:22:03;;;;;;;16.05;9.50;;;3.50;99.90;;;;;;5048819;28;20045;-84
2021/12/10 06:24:30;;;;;;;15.88;9.15;;;3.50;99.90;;;;;;5048674;28;20041;-84
2021/12/10 06:26:56;;;;;;;16.10;9.25;;;3.40;99.90;;;;;;5048036;28;20045;-84
2021/12/10 06:29:24;;;;;;;17.10;9.45;;;3.40;99.90;;;;;;5032011;28;20071;-84
2021/12/10 06:31:50;;;;;;;17.10;10.18;;;3.40;99.90;;;;;;5047977;28;20052;-84
2021/12/10 06:34:15;;;;;;;16.38;9.77;;;3.40;99.90;;;;;;5032066;28;20490;-84
2021/12/10 06:36:41;;;;;;;15.25;9.13;;;3.40;99.90;;;;;;5033607;28;20044;-84
2021/12/10 06:39:09;;;;;;;16.45;9.27;;;3.30;99.90;;;;;;5051798;28;20071;-85
2021/12/10 06:41:35;;;;;;;16.38;9.93;;;3.30;99.90;;;;;;5052356;28;20451;-85
2021/12/10 06:44:04;;;;;;;15.18;8.82;;;3.30;99.90;;;;;;5051027;28;20059;-84
2021/12/10 06:46:34;;;;;;;15.93;9.23;;;3.30;99.90;;;;;;5051945;28;20040;-85
2021/12/10 06:49:01;;;;;;;16.80;8.57;;;3.30;99.90;;;;;;5052207;28;20503;-84
2021/12/10 06:51:27;;;;;;;15.82;9.02;;;3.20;99.90;;;;;;5051710;28;20717;-84
2021/12/10 06:53:52;;;;;;;15.95;9.30;;;3.20;99.90;;;;;;5052137;28;20124;-85
2021/12/10 06:56:21;;;;;;;15.07;9.13;;;3.20;99.90;;;;;;5051965;28;20123;-84
2021/12/10 06:58:47;;;;;;;13.68;8.27;;;3.20;99.90;;;;;;5051922;28;20048;-85
2021/12/10 07:01:22;;;;;;;15.90;9.15;;;3.20;99.90;;;;;;5035303;28;20043;-84
2021/12/10 07:03:49;;;;;;;13.82;8.82;;;3.10;99.90;;;;;;5033980;28;20040;-84
2021/12/10 07:06:15;;;;;;;15.10;7.60;;;3.10;99.90;;;;;;5051586;28;20087;-84
2021/12/10 07:08:43;;;;;;;15.48;8.00;;;3.10;99.90;;;;;;5053169;28;20124;-84
2021/12/10 07:11:11;;;;;;;14.40;8.57;;;3.10;99.90;;;;;;5055445;28;20040;-84
2021/12/10 07:13:39;;;;;;;15.18;8.48;;;3.10;99.90;;;;;;5038192;28;20040;-84
2021/12/10 07:16:06;;;;;;;15.13;8.90;;;3.10;99.90;;;;;;5055719;28;20055;-84
2021/12/10 07:18:31;;;;;;;17.35;9.25;;;3.00;99.90;;;;;;5055757;28;20036;-84
2021/12/10 07:20:57;;;;;;;14.80;8.73;;;3.00;99.90;;;;;;5055421;28;20059;-84
2021/12/10 07:23:23;;;;;;;14.95;8.43;;;3.00;99.90;;;;;;5055069;28;20083;-84
2021/12/10 07:25:50;;;;;;;17.00;8.23;;;3.00;99.90;;;;;;5055265;28;20036;-84
2021/12/10 07:28:16;;;;;;;16.45;8.13;;;3.00;99.90;;;;;;5037971;28;20097;-84
2021/12/10 07:30:42;;;;;;;15.70;8.15;;;3.00;99.90;;;;;;5054934;28;20119;-84
2021/12/10 07:33:08;;;;;;;13.00;7.88;;;3.00;99.90;;;;;;5072352;28;20040;-84
2021/12/10 07:35:36;;;;;;;16.90;7.90;;;3.00;99.90;;;;;;5057738;28;20036;-85
2021/12/10 07:38:02;;;;;;;17.88;8.02;;;3.00;99.90;;;;;;5075601;28;20047;-84
2021/12/10 07:40:33;;;;;;;14.98;7.47;;;2.90;99.90;;;;;;5075290;28;20051;-83
2021/12/10 07:42:59;;;;;;;15.13;7.72;;;2.90;99.90;;;;;;5092983;28;20050;-84
2021/12/10 07:45:26;;;;;;;16.30;7.65;;;2.90;99.90;;;;;;5071272;28;20036;-85
2021/12/10 07:47:58;;;;;;;14.73;8.23;;;2.90;99.90;;;;;;5038114;28;20048;-84
2021/12/10 07:50:32;;;;;;;15.48;7.70;;;2.90;99.90;;;;;;5054587;28;20071;-84
2021/12/10 07:52:58;;;;;;;15.07;8.13;;;2.90;99.90;;;;;;5054472;28;20075;-84
2021/12/10 07:55:30;;;;;;;14.90;7.55;;;2.90;99.90;;;;;;5038122;28;20037;-84
2021/12/10 07:57:56;;;;;;;14.02;7.57;;;2.90;99.90;;;;;;5054270;28;20036;-84
2021/12/10 08:00:27;;;;;;;15.65;8.13;;;2.90;99.90;;;;;;5054726;28;20044;-84
2021/12/10 08:02:53;;;;;;;13.77;7.28;;;2.90;99.90;;;;;;5072669;28;20037;-84
2021/12/10 08:05:21;;;;;;;13.90;8.13;;;2.90;99.90;;;;;;5053384;28;20468;-84
2021/12/10 08:07:48;;;;;;;16.25;8.02;;;2.90;99.90;;;;;;5055137;28;20387;-84
2021/12/10 08:10:15;;;;;;;15.52;8.30;;;2.90;99.90;;;;;;5054867;28;20040;-84
2021/12/10 08:12:41;;;;;;;17.27;8.02;;;2.90;99.90;;;;;;5054465;28;20093;-84
2021/12/10 08:15:08;;;;;;;15.43;8.52;;;2.90;99.90;;;;;;5037475;28;20044;-84
2021/12/10 08:17:34;;;;;;;17.15;9.57;;;2.90;99.90;;;;;;5054835;28;20036;-84
2021/12/10 08:20:01;;;;;;;14.10;8.18;;;2.90;99.90;;;;;;5053449;28;20037;-84
2021/12/10 08:22:27;;;;;;;14.40;7.95;;;2.90;99.90;;;;;;5054748;28;20028;-84
2021/12/10 08:24:52;;;;;;;19.27;8.63;;;2.90;99.90;;;;;;5053293;28;20548;-84
2021/12/10 08:27:18;;;;;;;15.30;7.43;;;3.00;99.90;;;;;;5054007;28;20082;-85
2021/12/10 08:29:45;;;;;;;15.10;7.80;;;3.00;99.90;;;;;;5053670;28;20048;-84
2021/12/10 08:32:14;;;;;;;15.50;8.32;;;3.00;99.90;;;;;;5054048;28;20044;-84
2021/12/10 08:34:40;;;;;;;16.17;7.50;;;3.10;99.90;;;;;;5053444;28;20048;-84
2021/12/10 08:37:06;;;;;;;14.23;8.40;;;3.10;99.90;;;;;;5054204;28;20033;-84
2021/12/10 08:39:32;;;;;;;12.65;6.68;;;3.10;99.90;;;;;;5054463;28;20033;-85
2021/12/10 08:41:58;;;;;;;13.93;6.88;;;3.10;99.90;;;;;;5053696;28;20032;-84
2021/12/10 08:44:25;;;;;;;17.30;7.32;;;3.20;99.90;;;;;;5053386;28;20052;-84
2021/12/10 08:46:52;;;;;;;12.15;6.97;;;3.20;99.90;;;;;;5054160;28;20040;-84
2021/12/10 08:49:18;;;;;;;13.38;6.60;;;3.20;99.90;;;;;;5053168;28;20051;-84
2021/12/10 08:51:51;;;;;;;15.23;7.60;;;3.20;99.90;;;;;;5037237;28;20033;-84
2021/12/10 08:54:19;;;;;;;16.20;7.22;;;3.30;99.90;;;;;;5036522;28;20055;-84
2021/12/10 08:56:46;;;;;;;12.68;7.10;;;3.30;99.90;;;;;;5036872;28;20468;-84
2021/12/10 08:59:12;;;;;;;16.38;7.35;;;3.40;99.90;;;;;;5053769;28;20444;-84
2021/12/10 09:01:45;;;;;;;12.77;6.78;;;3.40;99.90;;;;;;5053786;28;20036;-84
2021/12/10 09:04:12;;;;;;;13.48;7.13;;;3.40;99.90;;;;;;5051955;28;20055;-84
2021/12/10 09:06:41;;;;;;;13.25;7.15;;;3.50;99.90;;;;;;5037068;28;20044;-84
2021/12/10 09:09:09;;;;;;;15.13;6.72;;;3.60;99.90;;;;;;5036460;28;20089;-84
2021/12/10 09:11:36;;;;;;;14.50;6.72;;;3.60;99.90;;;;;;5036899;28;20425;-83
2021/12/10 09:14:02;;;;;;;12.23;6.57;;;3.60;99.90;;;;;;5036322;28;20028;-84
2021/12/10 09:16:30;;;;;;;14.35;7.55;;;3.70;99.90;;;;;;5070928;28;20402;-84
2021/12/10 09:19:00;;;;;;;15.32;7.53;;;3.80;99.90;;;;;;5051781;28;20040;-84
2021/12/10 09:21:27;;;;;;;12.85;6.88;;;3.80;99.90;;;;;;5051588;28;20082;-84
2021/12/10 09:23:56;;;;;;;12.13;6.95;;;3.80;99.90;;;;;;5052185;28;20086;-83
2021/12/10 09:26:25;;;;;;;13.75;7.03;;;3.90;99.90;;;;;;5051773;28;20075;-83
2021/12/10 09:28:51;;;;;;;14.25;8.18;;;4.00;99.90;;;;;;5051583;28;20037;-83
2021/12/10 09:31:17;;;;;;;14.30;7.55;;;4.00;99.90;;;;;;5038326;28;20037;-84
2021/12/10 09:33:43;;;;;;;14.30;7.05;;;4.00;99.90;;;;;;5015238;28;20048;-84
2021/12/10 09:36:09;;;;;;;12.90;6.95;;;4.10;99.90;;;;;;5032496;28;20045;-84
2021/12/10 09:38:35;;;;;;;13.95;7.43;;;4.20;99.90;;;;;;5016729;28;20505;-84
2021/12/10 09:41:09;;;;;;;14.43;6.65;;;4.20;99.90;;;;;;5032780;28;20120;-83
2021/12/10 09:43:36;;;;;;;10.98;6.88;;;4.30;99.90;;;;;;5031944;28;20133;-84
2021/12/10 09:46:03;;;;;;;12.88;6.28;;;4.30;99.90;;;;;;5014529;28;20044;-84
2021/12/10 09:48:30;;;;;;;11.48;6.10;;;4.40;99.90;;;;;;5032387;28;20040;-83
2021/12/10 09:51:04;;;;;;;11.52;6.10;;;4.40;99.90;;;;;;5015330;28;20047;-84
2021/12/10 09:53:31;;;;;;;14.70;5.72;;;4.40;99.90;;;;;;5014789;28;20040;-83
2021/12/10 09:55:57;;;;;;;10.65;5.28;;;4.50;99.90;;;;;;5032611;28;20043;-84
2021/12/10 09:58:23;;;;;;;14.57;7.10;;;4.60;99.90;;;;;;5032748;28;20468;-84
2021/12/10 10:00:56;;;;;;;11.35;6.05;;;4.60;99.90;;;;;;5033253;28;20489;-84
2021/12/10 10:03:27;;;;;;;12.70;5.68;;;4.70;99.90;;;;;;5050638;28;20041;-84
2021/12/10 10:05:53;;;;;;;14.75;5.97;;;4.70;99.90;;;;;;5046414;28;20112;-83
2021/12/10 10:08:25;;;;;;;12.75;5.68;;;4.80;99.90;;;;;;5066197;28;20127;-83
2021/12/10 10:10:55;;;;;;;12.45;5.95;;;4.90;99.90;;;;;;5033615;28;20041;-81
2021/12/10 10:13:24;;;;;;;14.15;5.65;;;5.00;99.90;;;;;;5070590;28;20040;-83
2021/12/10 10:15:53;;;;;;;12.13;6.05;;;5.10;99.90;;;;;;5033350;28;20040;-84
2021/12/10 10:18:20;;;;;;;11.23;5.15;;;5.10;99.90;;;;;;5051777;28;20040;-83
2021/12/10 10:20:49;;;;;;;12.63;5.63;;;5.20;99.90;;;;;;5039596;28;20148;-83
2021/12/10 10:23:15;;;;;;;13.63;5.65;;;5.40;99.90;;;;;;5016856;28;20374;-83
2021/12/10 10:25:44;;;;;;;10.15;5.40;;;5.40;99.90;;;;;;5031981;28;20052;-83
2021/12/10 10:28:11;;;;;;;9.73;5.25;;;5.50;99.90;;;;;;5056823;28;20090;-84
2021/12/10 10:30:42;;;;;;;11.55;5.43;;;5.60;99.90;;;;;;5031061;28;20039;-84
2021/12/10 10:33:09;;;;;;;11.38;5.28;;;5.70;99.90;;;;;;5035080;28;20071;-84
2021/12/10 10:35:43;;;;;;;14.00;5.72;;;5.90;99.90;;;;;;5051320;28;20119;-84
2021/12/10 10:38:11;;;;;;;10.38;5.22;;;6.00;99.90;;;;;;5052300;28;20161;-84
2021/12/10 10:40:41;;;;;;;9.75;4.63;;;6.10;99.90;;;;;;5036205;28;20099;-85
2021/12/10 10:43:07;;;;;;;11.50;5.50;;;6.30;99.90;;;;;;5036535;28;20115;-85
2021/12/10 10:45:36;;;;;;;9.98;5.50;;;6.40;99.90;;;;;;5055633;28;20405;-85
2021/12/10 10:48:04;;;;;;;12.30;5.22;;;6.50;99.90;;;;;;5055655;28;20045;-84
2021/12/10 10:50:40;;;;;;;10.23;4.30;;;6.70;99.90;;;;;;5055657;28;20044;-84
2021/12/10 10:53:10;;;;;;;9.20;4.40;;;6.80;99.90;;;;;;5054810;28;20044;-83
2021/12/10 10:55:58;;;;;;;10.48;5.03;;;6.90;99.90;;;;;;5056326;28;20072;-83
2021/12/10 10:58:30;;;;;;;10.73;4.88;;;7.00;99.90;;;;;;5056564;28;20036;-84
2021/12/10 11:01:03;;;;;;;10.82;4.25;;;7.20;99.90;;;;;;5057739;28;20094;-84
2021/12/10 11:03:42;;;;;;;11.07;4.72;;;7.30;99.90;;;;;;5055928;28;20040;-84
2021/12/10 11:06:13;;;;;;;11.50;4.47;;;7.50;99.90;;;;;;5036264;28;20037;-83
2021/12/10 11:08:44;;;;;;;12.07;4.65;;;7.70;99.90;;;;;;5053758;28;20029;-84
2021/12/10 11:11:26;;;;;;;11.38;5.03;;;7.70;99.90;;;;;;5053152;28;20528;-84
2021/12/10 11:14:05;;;;;;;10.27;4.20;;;7.90;99.90;;;;;;5051228;28;20040;-84
2021/12/10 11:16:33;;;;;;;10.13;4.25;;;8.10;99.90;;;;;;5035593;28;20056;-85
2021/12/10 11:19:03;;;;;;;10.50;4.18;;;8.20;99.90;;;;;;5019363;28;20041;-85
2021/12/10 11:21:42;;;;;;;9.95;4.18;;;8.30;99.90;;;;;;5052184;28;20040;-85
2021/12/10 11:24:24;;;;;;;10.70;4.13;;;8.50;99.90;;;;;;5035276;28;20413;-85
2021/12/10 11:27:07;;;;;;;10.73;3.78;;;8.60;99.90;;;;;;5018988;28;20033;-85
2021/12/10 11:29:51;;;;;;;10.35;3.60;;;8.70;99.90;;;;;;5035295;28;20044;-84
2021/12/10 11:32:40;;;;;;;9.55;3.95;;;8.80;99.90;;;;;;5034851;28;20513;-85
2021/12/10 11:35:27;;;;;;;8.73;3.78;;;8.90;99.90;;;;;;5034736;28;20057;-84
2021/12/10 11:37:58;;;;;;;10.20;3.55;;;9.10;99.90;;;;;;5035307;28;20060;-85
2021/12/10 11:40:50;;;;;;;10.73;3.70;;;9.30;99.90;;;;;;5051676;28;20033;-85
2021/12/10 11:47:02;;;;;;;8.73;3.55;;;9.60;99.90;;;;;;5052692;28;20045;-85
2021/12/10 11:49:35;;;;;;;9.40;3.42;;;10.10;99.90;;;;;;5018439;28;20892;-84
2021/12/10 11:52:03;;;;;;;9.52;3.95;;;10.70;99.90;;;;;;5035178;28;20502;-85
2021/12/10 11:54:31;;;;;;;10.88;3.47;;;11.20;99.90;;;;;;5050459;28;20083;-85
2021/12/10 11:57:03;;;;;;;10.55;3.47;;;11.60;99.10;;;;;;5051607;28;20037;-85
2021/12/10 11:59:42;;;;;;;8.98;3.38;;;12.40;96.50;;;;;;5018547;28;20037;-85
2021/12/10 12:02:18;;;;;;;10.60;3.47;;;13.20;94.20;;;;;;5039420;28;20616;-85
2021/12/10 12:04:51;;;;;;;10.73;3.33;;;14.00;93.40;;;;;;5054483;28;20059;-84
2021/12/10 12:07:19;;;;;;;9.07;3.60;;;14.90;88.10;;;;;;5050226;28;20555;-84
2021/12/10 12:09:53;;;;;;;12.23;3.95;;;15.60;81.50;;;;;;5034200;28;20047;-84
2021/12/10 12:12:27;;;;;;;10.68;4.00;;;16.40;77.90;;;;;;5056613;28;20075;-84
2021/12/10 12:14:57;;;;;;;7.60;3.40;;;17.20;74.70;;;;;;5073495;28;20065;-84
2021/12/10 12:17:45;;;;;;;9.32;3.10;;;18.10;70.90;;;;;;5074208;28;20082;-85
2021/12/10 12:20:27;;;;;;;9.32;3.85;;;18.70;63.50;;;;;;5058875;28;20068;-85
2021/12/10 12:25:42;;;;;;;10.35;3.40;;;19.70;56.10;;;;;;5071381;28;19920;-85
2021/12/10 12:28:11;;;;;;;7.70;2.90;;;20.30;62.90;;;;;;5054052;28;20047;-85
2021/12/10 12:31:04;;;;;;;8.63;2.95;;;20.60;59.20;;;;;;5053715;28;20040;-86
2021/12/10 12:34:00;;;;;;;8.15;2.92;;;20.80;55.00;;;;;;5053057;28;20114;-85
2021/12/10 12:36:53;;;;;;;8.98;3.30;;;20.80;52.10;;;;;;5053625;28;20079;-85
2021/12/10 12:39:36;;;;;;;10.43;3.35;;;20.60;51.60;;;;;;5072136;28;20405;-85
2021/12/10 12:42:06;;;;;;;10.13;2.92;;;20.40;51.40;;;;;;5053793;28;20044;-85
2021/12/10 12:44:40;;;;;;;10.25;3.03;;;20.20;53.30;;;;;;5052575;28;20579;-85
2021/12/10 12:47:15;;;;;;;8.65;2.90;;;20.00;52.70;;;;;;5053886;28;20086;-85
2021/12/10 12:49:46;;;;;;;7.82;2.75;;;19.80;52.40;;;;;;5053912;28;20528;-85
2021/12/10 12:52:17;;;;;;;10.47;3.13;;;19.90;51.20;;;;;;5054349;28;20524;-85
2021/12/10 12:55:15;;;;;;;8.57;2.65;;;19.90;51.80;;;;;;5036711;28;20037;-85
2021/12/10 12:57:55;;;;;;;9.13;2.85;;;20.10;48.60;;;;;;5046662;28;20049;-85
2021/12/10 13:00:39;;;;;;;10.13;2.90;;;20.10;50.30;;;;;;5037225;28;20037;-85
2021/12/10 13:03:13;;;;;;;8.90;2.50;;;20.10;48.60;;;;;;5053675;28;20498;-85
2021/12/10 13:05:42;;;;;;;7.70;2.53;;;19.90;49.20;;;;;;5053231;28;20048;-85
2021/12/10 13:08:11;;;;;;;8.82;2.80;;;19.40;50.00;;;;;;5053679;28;20059;-85
2021/12/10 13:10:39;;;;;;;8.00;2.70;;;19.00;51.20;;;;;;5071354;28;20036;-85